Time;durP1;ratioP1;P1;durP2;ratioP2;P2;SDS_P1;SDS_P2;PMS_P1;PMS_P2;Temp;Humidity;BMP_temperature;BMP_pressure;BME280_temperature;BME280_humidity;BME280_pressure;Samples;Min_cycle;Max_cycle;Signal;HPM_P1;HPM_P2
2023/01/26 00:01:20;;;;;;;16.90;9.43;;;1.40;69.10;;;;;;4650172;30;115972;-80
2023/01/26 00:03:48;;;;;;;18.08;9.73;;;1.40;69.00;;;;;;4634690;30;115293;-81
2023/01/26 00:06:16;;;;;;;19.15;10.73;;;1.40;68.80;;;;;;4649159;30;114787;-79
2023/01/26 00:08:48;;;;;;;19.83;11.50;;;1.40;68.80;;;;;;4621178;30;118459;-80
2023/01/26 00:11:19;;;;;;;19.65;11.57;;;1.40;68.80;;;;;;4650217;30;114583;-78
2023/01/26 00:13:52;;;;;;;19.85;10.45;;;1.50;68.80;;;;;;4620161;30;117745;-80
2023/01/26 00:16:19;;;;;;;19.17;10.70;;;1.50;68.70;;;;;;4650057;30;115413;-80
2023/01/26 00:18:46;;;;;;;18.42;10.15;;;1.50;68.80;;;;;;4649756;30;114897;-80
2023/01/26 00:21:19;;;;;;;17.55;10.18;;;1.50;68.60;;;;;;4650077;30;114640;-79
2023/01/26 00:23:47;;;;;;;16.90;10.32;;;1.50;68.60;;;;;;4634481;30;115322;-79
2023/01/26 00:26:19;;;;;;;17.45;9.77;;;1.40;68.80;;;;;;4649605;30;115827;-80
2023/01/26 00:28:46;;;;;;;17.85;10.23;;;1.40;68.80;;;;;;4649088;30;114779;-80
2023/01/26 00:31:17;;;;;;;18.50;10.45;;;1.30;68.90;;;;;;4650422;30;114531;-79
2023/01/26 00:33:44;;;;;;;17.35;10.10;;;1.30;68.90;;;;;;4633476;30;115244;-81
2023/01/26 00:36:11;;;;;;;17.13;9.82;;;1.30;68.90;;;;;;4633868;30;117767;-80
2023/01/26 00:38:39;;;;;;;18.83;9.95;;;1.30;68.90;;;;;;4620682;30;114787;-81
2023/01/26 00:41:08;;;;;;;17.52;9.95;;;1.40;68.80;;;;;;4635483;30;114851;-81
2023/01/26 00:43:35;;;;;;;20.50;11.40;;;1.50;68.70;;;;;;4634262;30;116420;-80
2023/01/26 00:46:02;;;;;;;20.15;11.43;;;1.50;68.70;;;;;;4649993;30;115452;-80
2023/01/26 00:48:29;;;;;;;20.40;11.73;;;1.50;68.60;;;;;;4646413;30;115579;-79
2023/01/26 00:50:56;;;;;;;23.27;12.75;;;1.50;68.40;;;;;;4632257;30;114703;-79
2023/01/26 00:53:24;;;;;;;24.10;13.10;;;1.50;68.40;;;;;;4637200;30;115295;-80
2023/01/26 00:55:54;;;;;;;23.83;13.40;;;1.40;68.50;;;;;;4634096;30;114677;-80
2023/01/26 00:58:22;;;;;;;25.15;13.65;;;1.40;68.60;;;;;;4649100;30;114528;-80
2023/01/26 01:00:49;;;;;;;22.00;12.73;;;1.40;68.70;;;;;;4634862;30;114525;-79
2023/01/26 01:03:16;;;;;;;24.77;13.35;;;1.40;68.60;;;;;;4649774;30;115240;-79
2023/01/26 01:05:46;;;;;;;27.55;14.60;;;1.40;68.50;;;;;;4648272;30;114795;-80
2023/01/26 01:08:13;;;;;;;27.00;13.40;;;1.30;68.60;;;;;;4650122;30;114534;-79
2023/01/26 01:10:41;;;;;;;25.00;12.40;;;1.20;68.70;;;;;;4650671;30;114672;-79
2023/01/26 01:13:08;;;;;;;23.45;13.95;;;1.10;68.80;;;;;;4649562;30;115390;-80
2023/01/26 01:15:37;;;;;;;26.20;14.00;;;1.10;69.10;;;;;;4648013;30;115583;-79
2023/01/26 01:18:05;;;;;;;30.42;15.13;;;1.10;69.30;;;;;;4634157;30;114653;-80
2023/01/26 01:20:32;;;;;;;25.00;14.40;;;1.10;69.20;;;;;;4650231;30;114836;-80
2023/01/26 01:22:59;;;;;;;23.50;14.43;;;1.10;69.20;;;;;;4649404;30;115365;-80
2023/01/26 01:25:26;;;;;;;28.05;14.05;;;1.00;69.30;;;;;;4649239;30;114701;-80
2023/01/26 01:27:54;;;;;;;27.50;15.07;;;1.10;69.50;;;;;;4606255;30;114614;-80
2023/01/26 01:30:21;;;;;;;26.75;15.20;;;1.10;69.30;;;;;;4648660;30;114459;-79
2023/01/26 01:32:50;;;;;;;28.05;14.98;;;1.00;69.30;;;;;;4648788;30;115122;-80
2023/01/26 01:35:17;;;;;;;28.65;15.48;;;0.90;69.60;;;;;;4649442;30;117473;-79
2023/01/26 01:37:44;;;;;;;29.10;16.20;;;0.80;69.60;;;;;;4649598;30;114446;-79
2023/01/26 01:40:12;;;;;;;32.72;16.80;;;0.90;69.80;;;;;;4634139;30;115365;-80
2023/01/26 01:42:47;;;;;;;29.95;15.20;;;0.80;69.40;;;;;;4633262;30;115678;-80
2023/01/26 01:45:39;;;;;;;30.45;16.35;;;0.70;69.40;;;;;;4636820;30;114867;-79
2023/01/26 01:48:17;;;;;;;29.05;15.18;;;0.60;69.70;;;;;;4622407;30;114541;-79
2023/01/26 01:50:44;;;;;;;26.20;14.38;;;0.60;70.20;;;;;;4651884;30;115232;-80
2023/01/26 01:53:17;;;;;;;27.95;15.93;;;0.60;70.20;;;;;;4636016;30;117108;-79
2023/01/26 01:55:44;;;;;;;28.33;15.20;;;0.60;70.30;;;;;;4621319;30;114766;-78
2023/01/26 01:58:12;;;;;;;29.90;15.82;;;0.70;70.30;;;;;;4636144;30;114559;-80
2023/01/26 02:00:39;;;;;;;29.73;15.70;;;0.80;70.10;;;;;;4636028;30;114813;-79
2023/01/26 02:03:10;;;;;;;27.70;15.20;;;0.80;70.20;;;;;;4651146;30;115737;-80
2023/01/26 02:05:56;;;;;;;29.73;15.68;;;0.90;70.20;;;;;;4649631;30;115277;-80
2023/01/26 02:08:42;;;;;;;25.98;15.43;;;0.90;70.30;;;;;;4636429;30;114652;-78
2023/01/26 02:11:16;;;;;;;27.15;15.75;;;0.90;70.30;;;;;;4622326;30;114491;-79
2023/01/26 02:13:46;;;;;;;30.23;16.40;;;0.90;70.10;;;;;;4649155;30;115830;-81
2023/01/26 02:16:14;;;;;;;29.85;16.10;;;0.90;70.40;;;;;;4649702;30;114690;-79
2023/01/26 02:18:42;;;;;;;30.40;16.95;;;0.90;70.20;;;;;;4636340;30;114679;-80
2023/01/26 02:21:18;;;;;;;26.15;15.98;;;0.90;69.90;;;;;;4636307;30;116817;-79
2023/01/26 02:24:06;;;;;;;32.65;17.73;;;0.80;70.00;;;;;;4631240;30;118024;-80
2023/01/26 02:26:34;;;;;;;27.08;16.13;;;0.80;69.90;;;;;;4649464;30;114726;-79
2023/01/26 02:29:05;;;;;;;30.55;16.38;;;0.80;70.10;;;;;;4636592;30;115832;-80
2023/01/26 02:31:35;;;;;;;30.42;16.40;;;0.70;70.10;;;;;;4622600;30;114564;-80
2023/01/26 02:34:03;;;;;;;34.97;18.25;;;0.80;70.00;;;;;;4634685;30;115704;-80
2023/01/26 02:36:31;;;;;;;28.80;16.90;;;0.80;70.10;;;;;;4649660;30;116444;-80
2023/01/26 02:39:17;;;;;;;30.75;17.50;;;0.70;69.90;;;;;;4650042;30;115282;-80
2023/01/26 02:44:31;;;;;;;36.45;19.10;;;0.60;70.10;;;;;;4637513;30;115516;-80
2023/01/26 02:46:58;;;;;;;37.88;19.83;;;0.60;70.40;;;;;;4662911;30;115147;-79
2023/01/26 02:52:14;;;;;;;35.00;17.23;;;0.60;70.20;;;;;;4650522;30;114579;-80
2023/01/26 02:57:30;;;;;;;38.58;20.52;;;0.60;70.50;;;;;;4636344;30;116802;-80
2023/01/26 02:59:58;;;;;;;31.45;17.65;;;0.50;70.40;;;;;;4649961;30;114549;-81
2023/01/26 03:02:26;;;;;;;39.75;20.58;;;0.40;70.70;;;;;;4635982;30;114798;-81
2023/01/26 03:04:54;;;;;;;37.35;19.20;;;0.40;70.90;;;;;;4649013;30;116417;-81
2023/01/26 03:07:21;;;;;;;35.40;19.38;;;0.50;71.30;;;;;;4650498;30;114693;-80
2023/01/26 03:09:50;;;;;;;37.47;21.02;;;0.60;71.20;;;;;;4649986;30;114589;-80
2023/01/26 03:12:17;;;;;;;31.75;17.88;;;0.70;71.00;;;;;;4621489;30;114618;-79
2023/01/26 03:15:33;;;;;;;31.92;18.98;;;0.80;70.60;;;;;;4661963;30;115333;-78
2023/01/26 03:17:33;;;;;;;36.10;19.00;;;0.70;70.50;;;;;;4648940;30;115848;-79
2023/01/26 03:27:25;;;;;;;41.42;20.80;;;0.70;70.60;;;;;;4637691;30;114812;-79
2023/01/26 03:28:27;;;;;;;37.03;19.60;;;0.80;70.60;;;;;;4606620;30;115260;-80
2023/01/26 03:30:55;;;;;;;35.55;19.42;;;0.90;70.30;;;;;;4619581;30;114964;-81
2023/01/26 03:33:22;;;;;;;37.83;19.20;;;0.90;70.20;;;;;;4619122;30;114768;-80
2023/01/26 03:35:52;;;;;;;35.00;18.92;;;0.90;70.10;;;;;;4640959;30;116030;-80
2023/01/26 03:38:21;;;;;;;41.15;20.42;;;0.80;70.40;;;;;;4635376;30;115291;-79
2023/01/26 03:57:34;;;;;;;40.05;21.45;;;0.70;70.30;;;;;;4648935;30;115833;-80
2023/01/26 04:00:02;;;;;;;42.75;22.33;;;0.60;70.60;;;;;;4649101;30;115903;-80
2023/01/26 04:08:25;;;;;;;40.97;20.90;;;0.70;71.00;;;;;;4648130;30;115261;-81
2023/01/26 04:10:56;;;;;;;40.00;21.30;;;0.70;71.10;;;;;;4649639;30;115758;-81
2023/01/26 04:21:59;;;;;;;42.22;20.77;;;0.70;70.70;;;;;;4634336;30;118139;-81
2023/01/26 04:24:27;;;;;;;42.13;22.50;;;0.60;70.50;;;;;;4649843;30;114755;-80
2023/01/26 04:26:56;;;;;;;38.78;21.80;;;0.60;70.80;;;;;;4649726;30;114638;-81
2023/01/26 04:29:32;;;;;;;36.50;19.63;;;0.70;70.80;;;;;;4650366;30;115040;-79
2023/01/26 04:31:59;;;;;;;41.35;21.13;;;0.70;70.70;;;;;;4620333;30;115342;-79
2023/01/26 04:34:27;;;;;;;43.20;21.58;;;0.80;70.60;;;;;;4649628;30;114722;-78
2023/01/26 04:36:54;;;;;;;33.38;18.92;;;0.90;70.40;;;;;;4635906;30;114748;-80
2023/01/26 04:39:25;;;;;;;37.05;19.40;;;0.80;70.30;;;;;;4649081;30;115214;-79
2023/01/26 04:41:55;;;;;;;37.58;21.48;;;0.80;70.50;;;;;;4646757;30;114721;-79
2023/01/26 04:44:22;;;;;;;39.45;22.58;;;0.80;70.70;;;;;;4634847;30;115153;-79
2023/01/26 04:46:49;;;;;;;35.78;19.52;;;0.80;70.80;;;;;;4649944;30;114790;-80
2023/01/26 04:49:17;;;;;;;41.13;21.88;;;0.90;70.60;;;;;;4648709;30;115134;-80
2023/01/26 04:51:45;;;;;;;39.58;18.52;;;0.80;70.40;;;;;;4648859;30;116424;-79
2023/01/26 04:54:13;;;;;;;46.67;21.90;;;0.70;70.50;;;;;;4635238;30;114681;-80
2023/01/26 04:56:43;;;;;;;39.28;21.30;;;0.70;70.70;;;;;;4651978;30;114844;-80
2023/01/26 04:59:10;;;;;;;36.10;19.08;;;0.70;70.80;;;;;;4648797;30;118339;-79
2023/01/26 05:01:40;;;;;;;35.25;19.90;;;0.80;70.80;;;;;;4648934;30;115687;-80
2023/01/26 05:04:07;;;;;;;35.90;19.10;;;0.90;70.70;;;;;;4635697;30;115614;-79
2023/01/26 05:06:38;;;;;;;41.42;21.40;;;0.90;70.50;;;;;;4621567;30;114522;-79
2023/01/26 05:09:05;;;;;;;38.72;20.63;;;0.90;70.40;;;;;;4634128;30;115173;-80
2023/01/26 05:11:34;;;;;;;40.22;20.40;;;1.00;70.40;;;;;;4634126;30;114941;-80
2023/01/26 05:14:07;;;;;;;41.30;21.90;;;1.00;70.30;;;;;;4650345;30;114867;-79
2023/01/26 05:16:42;;;;;;;42.78;22.52;;;1.10;70.20;;;;;;4646291;30;114596;-80
2023/01/26 05:19:39;;;;;;;41.58;21.90;;;1.00;70.10;;;;;;4623248;30;115289;-79
2023/01/26 05:22:42;;;;;;;46.28;24.35;;;1.00;70.30;;;;;;4599906;30;114769;-80
2023/01/26 05:25:28;;;;;;;37.50;19.42;;;1.00;70.40;;;;;;4650385;30;114820;-80
2023/01/26 05:28:02;;;;;;;40.08;20.73;;;0.90;70.50;;;;;;4652843;30;114549;-80
2023/01/26 05:30:30;;;;;;;44.25;23.67;;;0.80;70.60;;;;;;4651483;30;115213;-80
2023/01/26 05:33:03;;;;;;;35.80;19.92;;;0.80;70.70;;;;;;4637465;30;115966;-80
2023/01/26 05:35:31;;;;;;;35.80;19.17;;;0.90;70.70;;;;;;4637296;30;114645;-79
2023/01/26 05:37:59;;;;;;;38.10;19.15;;;0.90;70.60;;;;;;4652271;30;114595;-80
2023/01/26 05:40:29;;;;;;;39.90;21.58;;;0.80;70.70;;;;;;4636617;30;115161;-79
2023/01/26 05:42:56;;;;;;;32.65;17.45;;;0.80;70.70;;;;;;4644973;30;114889;-80
2023/01/26 05:45:48;;;;;;;41.67;20.73;;;0.80;70.90;;;;;;4645359;30;115053;-79
2023/01/26 05:48:21;;;;;;;43.33;20.90;;;0.80;71.00;;;;;;4659977;30;114675;-79
2023/01/26 05:50:51;;;;;;;35.47;17.58;;;0.80;70.90;;;;;;4645565;30;115523;-79
2023/01/26 05:53:20;;;;;;;37.63;18.90;;;0.90;70.80;;;;;;4660463;30;115678;-79
2023/01/26 05:55:48;;;;;;;54.28;23.77;;;0.90;70.80;;;;;;4664640;30;114620;-80
2023/01/26 05:58:18;;;;;;;38.35;18.75;;;0.80;70.70;;;;;;4648916;30;114665;-79
2023/01/26 06:00:46;;;;;;;40.05;20.98;;;0.80;70.90;;;;;;4645962;30;117669;-80
2023/01/26 06:03:20;;;;;;;45.80;22.30;;;0.80;71.00;;;;;;4663099;30;114692;-80
2023/01/26 06:05:54;;;;;;;42.58;22.17;;;0.80;71.10;;;;;;4648600;30;114804;-80
2023/01/26 06:08:46;;;;;;;44.13;23.13;;;0.90;71.00;;;;;;4663722;30;114573;-79
2023/01/26 06:11:32;;;;;;;47.15;23.42;;;0.90;70.70;;;;;;4648178;30;117897;-80
2023/01/26 06:14:19;;;;;;;41.70;22.05;;;0.80;70.90;;;;;;4661221;30;114927;-80
2023/01/26 06:16:47;;;;;;;43.78;22.70;;;0.80;70.90;;;;;;4657257;30;114681;-80
2023/01/26 06:19:15;;;;;;;41.33;22.35;;;0.80;70.70;;;;;;4647415;30;114570;-79
2023/01/26 06:21:48;;;;;;;42.58;23.20;;;0.80;70.70;;;;;;4645127;30;116406;-78
2023/01/26 06:24:15;;;;;;;41.70;21.92;;;0.80;70.70;;;;;;4657828;30;116142;-79
2023/01/26 06:26:43;;;;;;;40.88;22.00;;;0.80;70.70;;;;;;4659339;30;114655;-79
2023/01/26 06:29:11;;;;;;;42.03;21.38;;;0.70;70.70;;;;;;4644903;30;114627;-80
2023/01/26 06:31:39;;;;;;;48.35;23.10;;;0.60;70.70;;;;;;4657003;30;115203;-80
2023/01/26 06:34:07;;;;;;;39.30;20.92;;;0.60;70.70;;;;;;4660429;30;115218;-81
2023/01/26 06:36:39;;;;;;;44.25;21.95;;;0.60;70.80;;;;;;4659625;30;115030;-80
2023/01/26 06:39:10;;;;;;;45.13;22.55;;;0.70;71.00;;;;;;4660071;30;114552;-80
2023/01/26 06:41:39;;;;;;;40.95;21.25;;;0.70;71.00;;;;;;4631948;30;115170;-80
2023/01/26 06:44:07;;;;;;;41.08;21.13;;;0.70;71.10;;;;;;4645903;30;117996;-80
2023/01/26 06:46:35;;;;;;;45.88;23.15;;;0.70;71.10;;;;;;4660995;30;114923;-79
2023/01/26 06:49:04;;;;;;;44.67;23.98;;;0.70;71.00;;;;;;4646424;30;114616;-81
2023/01/26 06:51:52;;;;;;;55.17;26.58;;;0.80;71.10;;;;;;4658533;30;115124;-81
2023/01/26 06:54:20;;;;;;;53.53;26.02;;;0.90;71.00;;;;;;4657510;30;114895;-80
2023/01/26 06:57:08;;;;;;;55.25;26.08;;;0.90;70.80;;;;;;4649976;30;114622;-81
2023/01/26 06:59:38;;;;;;;53.28;26.42;;;0.90;70.80;;;;;;4662149;30;114784;-80
2023/01/26 07:02:31;;;;;;;55.75;27.27;;;0.90;70.60;;;;;;4659600;30;115067;-81
2023/01/26 07:04:59;;;;;;;48.15;24.77;;;0.90;70.80;;;;;;4663050;30;115217;-81
2023/01/26 07:07:26;;;;;;;57.83;29.02;;;0.90;70.70;;;;;;4661772;30;114720;-80
2023/01/26 07:09:54;;;;;;;51.08;26.60;;;0.90;70.60;;;;;;4663590;30;114843;-80
2023/01/26 07:12:21;;;;;;;42.40;24.58;;;0.80;70.60;;;;;;4660879;30;116292;-80
2023/01/26 07:14:50;;;;;;;46.42;27.67;;;0.80;70.90;;;;;;4662664;30;115902;-80
2023/01/26 07:17:17;;;;;;;49.38;24.58;;;0.80;70.80;;;;;;4662290;30;115371;-79
2023/01/26 07:19:45;;;;;;;48.67;25.63;;;0.80;70.80;;;;;;4665526;30;114622;-80
2023/01/26 07:22:16;;;;;;;50.80;26.08;;;0.70;70.50;;;;;;4646045;30;115212;-79
2023/01/26 07:24:43;;;;;;;50.20;26.25;;;0.60;70.70;;;;;;4648461;30;116365;-81
2023/01/26 07:27:10;;;;;;;53.15;27.50;;;0.60;70.90;;;;;;4661923;30;114624;-80
2023/01/26 07:29:38;;;;;;;56.65;27.08;;;0.60;71.20;;;;;;4660682;30;115979;-80
2023/01/26 07:32:05;;;;;;;58.63;30.90;;;0.80;71.30;;;;;;4659930;30;115053;-79
2023/01/26 07:34:32;;;;;;;56.88;28.17;;;0.90;71.10;;;;;;4657362;30;116529;-81
2023/01/26 07:37:00;;;;;;;65.55;30.00;;;0.90;70.90;;;;;;4659804;30;115364;-80
2023/01/26 07:39:27;;;;;;;60.10;29.70;;;1.00;70.80;;;;;;4664509;30;115092;-79
2023/01/26 07:41:55;;;;;;;52.03;26.98;;;1.00;70.80;;;;;;4649997;30;115176;-79
2023/01/26 07:44:32;;;;;;;56.67;27.77;;;1.10;70.90;;;;;;4636102;30;115479;-80
2023/01/26 07:46:59;;;;;;;58.67;28.90;;;1.20;70.60;;;;;;4651563;30;115848;-79
2023/01/26 07:49:26;;;;;;;50.88;25.63;;;1.20;70.40;;;;;;4650420;30;114788;-80
2023/01/26 07:51:54;;;;;;;46.10;25.15;;;1.30;70.30;;;;;;4651147;30;115124;-79
2023/01/26 07:54:21;;;;;;;47.63;24.88;;;1.30;70.30;;;;;;4652141;30;114815;-79
2023/01/26 07:56:53;;;;;;;46.95;25.90;;;1.30;70.40;;;;;;4636063;30;114660;-79
2023/01/26 07:59:21;;;;;;;46.22;23.45;;;1.30;70.50;;;;;;4651011;30;114466;-79
2023/01/26 08:01:49;;;;;;;50.05;25.63;;;1.30;70.40;;;;;;4650388;30;114931;-80
2023/01/26 08:04:16;;;;;;;54.65;27.27;;;1.30;70.50;;;;;;4635360;30;114810;-79
2023/01/26 08:06:43;;;;;;;52.80;25.27;;;1.40;70.40;;;;;;4650777;30;114607;-80
2023/01/26 08:09:11;;;;;;;44.45;25.15;;;1.40;70.30;;;;;;4654916;30;114686;-80
2023/01/26 08:11:38;;;;;;;45.83;24.05;;;1.60;70.20;;;;;;4635838;30;115502;-79
2023/01/26 08:14:05;;;;;;;48.47;25.13;;;1.50;70.00;;;;;;4651947;30;115442;-79
2023/01/26 08:16:33;;;;;;;49.58;27.05;;;1.50;70.00;;;;;;4639078;30;114791;-79
2023/01/26 08:19:00;;;;;;;50.65;27.17;;;1.60;70.00;;;;;;4652843;30;114598;-78
2023/01/26 08:21:27;;;;;;;48.05;24.60;;;1.60;70.00;;;;;;4650024;30;115182;-79
2023/01/26 08:23:54;;;;;;;44.95;24.95;;;1.70;69.80;;;;;;4649560;30;115983;-80
2023/01/26 08:26:22;;;;;;;43.92;23.60;;;1.70;69.80;;;;;;4652630;30;114731;-80
2023/01/26 08:28:50;;;;;;;50.05;25.40;;;1.80;69.60;;;;;;4652392;30;115365;-78
2023/01/26 08:31:19;;;;;;;45.03;24.65;;;1.80;69.40;;;;;;4651861;30;115202;-80
2023/01/26 08:33:49;;;;;;;48.15;24.70;;;1.90;69.20;;;;;;4621014;30;115148;-81
2023/01/26 08:36:17;;;;;;;51.97;26.10;;;1.90;69.10;;;;;;4637759;30;114664;-80
2023/01/26 08:38:48;;;;;;;46.83;25.77;;;1.90;69.10;;;;;;4649941;30;114677;-80
2023/01/26 08:41:15;;;;;;;42.60;23.73;;;1.90;69.00;;;;;;4634907;30;115488;-79
2023/01/26 08:43:43;;;;;;;49.42;25.10;;;2.00;69.10;;;;;;4648993;30;114977;-79
2023/01/26 08:46:10;;;;;;;48.45;25.33;;;2.00;69.00;;;;;;4651394;30;114484;-81
2023/01/26 08:48:38;;;;;;;47.67;25.10;;;2.00;69.00;;;;;;4651951;30;114697;-78
2023/01/26 08:51:08;;;;;;;52.90;27.40;;;2.00;68.90;;;;;;4650985;30;115974;-79
2023/01/26 08:53:36;;;;;;;52.40;26.00;;;2.10;68.70;;;;;;4651704;30;114959;-81
2023/01/26 08:56:05;;;;;;;50.85;25.90;;;2.10;68.70;;;;;;4650472;30;114675;-79
2023/01/26 08:58:32;;;;;;;54.47;27.42;;;2.10;68.70;;;;;;4652577;30;115151;-78
2023/01/26 09:01:06;;;;;;;47.33;24.73;;;2.10;68.50;;;;;;4651173;30;115292;-79
2023/01/26 09:03:33;;;;;;;47.55;24.40;;;2.10;68.30;;;;;;4650773;30;114777;-79
2023/01/26 09:06:01;;;;;;;55.17;26.92;;;2.10;68.50;;;;;;4640279;30;114515;-79
2023/01/26 09:08:28;;;;;;;55.10;28.70;;;2.10;68.40;;;;;;4637674;30;114811;-78
2023/01/26 09:10:55;;;;;;;52.72;28.92;;;2.10;68.40;;;;;;4655136;30;116293;-79
2023/01/26 09:13:23;;;;;;;55.20;27.27;;;2.10;68.40;;;;;;4650201;30;114733;-79
2023/01/26 09:15:50;;;;;;;54.78;27.58;;;2.00;68.30;;;;;;4650503;30;114875;-79
2023/01/26 09:18:17;;;;;;;59.97;29.48;;;2.00;68.40;;;;;;4652184;30;114580;-80
2023/01/26 09:20:44;;;;;;;55.53;28.13;;;1.90;68.70;;;;;;4662031;30;116318;-79
2023/01/26 09:23:12;;;;;;;52.58;28.98;;;1.90;68.70;;;;;;4635785;30;114991;-79
2023/01/26 09:25:39;;;;;;;58.55;29.23;;;2.00;68.70;;;;;;4653473;30;115210;-79
2023/01/26 09:28:06;;;;;;;57.40;28.85;;;2.00;68.70;;;;;;4637252;30;115142;-79
2023/01/26 09:30:34;;;;;;;53.67;27.58;;;2.00;68.60;;;;;;4648348;30;115159;-79
2023/01/26 09:33:03;;;;;;;54.60;29.05;;;2.00;68.60;;;;;;4634087;30;114879;-79
2023/01/26 09:35:30;;;;;;;56.08;28.30;;;2.00;68.50;;;;;;4650004;30;114630;-80
2023/01/26 09:37:58;;;;;;;53.42;28.83;;;2.00;68.50;;;;;;4651689;30;114698;-79
2023/01/26 09:41:02;;;;;;;55.15;28.33;;;2.00;68.50;;;;;;4650515;30;115222;-79
2023/01/26 09:43:42;;;;;;;54.42;27.15;;;2.10;68.30;;;;;;4651221;30;116180;-79
2023/01/26 09:46:25;;;;;;;52.80;27.75;;;2.10;68.40;;;;;;4649291;30;114523;-79
2023/01/26 09:49:17;;;;;;;51.90;27.90;;;2.00;68.40;;;;;;4649637;30;116884;-80
2023/01/26 09:52:02;;;;;;;56.65;29.23;;;2.10;68.40;;;;;;4648371;30;115186;-79
2023/01/26 09:54:51;;;;;;;63.35;33.05;;;2.10;68.40;;;;;;4634924;30;115114;-80
2023/01/26 09:57:31;;;;;;;57.50;31.00;;;2.00;68.40;;;;;;4634680;30;115268;-79
2023/01/26 10:00:16;;;;;;;60.17;31.05;;;2.00;68.70;;;;;;4649251;30;114705;-81
2023/01/26 10:02:49;;;;;;;56.88;30.73;;;2.10;68.50;;;;;;4648892;30;115244;-80
2023/01/26 10:05:43;;;;;;;57.58;29.75;;;2.00;68.40;;;;;;4651817;30;115448;-81
2023/01/26 10:08:12;;;;;;;55.25;28.80;;;2.10;68.30;;;;;;4623016;30;114903;-80
2023/01/26 10:10:53;;;;;;;57.55;28.90;;;2.10;68.40;;;;;;4637757;30;114494;-79
2023/01/26 10:13:21;;;;;;;51.03;28.27;;;2.20;68.30;;;;;;4625384;30;115533;-80
2023/01/26 10:16:04;;;;;;;51.90;27.45;;;2.20;68.20;;;;;;4621658;30;115328;-80
2023/01/26 10:18:45;;;;;;;55.70;26.25;;;2.20;68.00;;;;;;4640967;30;114735;-79
2023/01/26 10:21:12;;;;;;;58.70;28.33;;;2.30;68.00;;;;;;4638917;30;115001;-81
2023/01/26 10:23:46;;;;;;;56.95;28.77;;;2.30;68.00;;;;;;4636798;30;115375;-79
2023/01/26 10:26:20;;;;;;;57.22;27.73;;;2.30;67.90;;;;;;4664688;30;114984;-80
2023/01/26 10:28:49;;;;;;;50.85;26.70;;;2.40;67.70;;;;;;4666029;30;114859;-80
2023/01/26 10:31:22;;;;;;;59.58;28.90;;;2.40;67.70;;;;;;4652915;30;114726;-79
2023/01/26 10:34:02;;;;;;;53.00;28.20;;;2.40;67.70;;;;;;4651738;30;115522;-78
2023/01/26 10:36:30;;;;;;;49.03;27.30;;;2.50;67.70;;;;;;4638184;30;114981;-80
2023/01/26 10:39:09;;;;;;;50.08;26.48;;;2.40;67.50;;;;;;4636764;30;114616;-81
2023/01/26 10:41:36;;;;;;;47.67;25.40;;;2.50;67.50;;;;;;4640432;30;114549;-79
2023/01/26 10:44:33;;;;;;;45.30;24.50;;;2.50;67.50;;;;;;4637302;30;115253;-80
2023/01/26 10:47:17;;;;;;;46.53;23.92;;;2.60;67.30;;;;;;4621633;30;115908;-80
2023/01/26 10:49:44;;;;;;;46.28;26.13;;;2.60;67.10;;;;;;4651007;30;115489;-79
2023/01/26 10:52:23;;;;;;;44.28;23.75;;;2.50;67.20;;;;;;4652441;30;114806;-80
2023/01/26 10:55:19;;;;;;;46.20;23.35;;;2.60;66.90;;;;;;4652958;30;115198;-78
2023/01/26 10:57:46;;;;;;;43.28;24.50;;;2.50;66.90;;;;;;4621863;30;116773;-80
2023/01/26 11:00:28;;;;;;;46.50;23.05;;;2.50;66.90;;;;;;4652118;30;114617;-78
2023/01/26 11:03:19;;;;;;;44.25;23.13;;;2.60;66.70;;;;;;4636928;30;114956;-77
2023/01/26 11:06:05;;;;;;;46.45;24.98;;;2.60;67.00;;;;;;4631658;30;116401;-78
2023/01/26 11:08:37;;;;;;;44.35;22.33;;;2.60;67.00;;;;;;4635961;30;114895;-78
2023/01/26 11:11:09;;;;;;;44.75;23.95;;;2.60;66.80;;;;;;4651294;30;114683;-78
2023/01/26 11:13:36;;;;;;;48.78;26.77;;;2.60;66.60;;;;;;4616086;30;114761;-79
2023/01/26 11:16:18;;;;;;;47.13;24.98;;;2.60;66.70;;;;;;4650322;30;115298;-78
2023/01/26 11:18:54;;;;;;;46.63;24.48;;;2.60;66.60;;;;;;4651301;30;114803;-79
2023/01/26 11:21:30;;;;;;;48.20;24.65;;;2.60;66.70;;;;;;4651994;30;114697;-79
2023/01/26 11:24:07;;;;;;;44.70;23.95;;;2.60;66.70;;;;;;4637442;30;114636;-79
2023/01/26 11:27:09;;;;;;;51.95;25.77;;;2.60;66.50;;;;;;4635367;30;118710;-78
2023/01/26 11:30:23;;;;;;;50.67;26.23;;;2.60;66.40;;;;;;4650841;30;115229;-78
2023/01/26 11:33:24;;;;;;;48.38;25.50;;;2.60;66.40;;;;;;4638121;30;114609;-79
2023/01/26 11:36:22;;;;;;;45.15;22.98;;;2.60;66.50;;;;;;4636299;30;114919;-80
2023/01/26 11:39:13;;;;;;;50.40;26.67;;;2.60;66.50;;;;;;4627583;30;115274;-79
2023/01/26 11:42:05;;;;;;;47.75;25.85;;;2.60;66.60;;;;;;4625525;30;116986;-80
2023/01/26 11:45:21;;;;;;;46.33;24.33;;;2.50;66.60;;;;;;4650922;30;114758;-79
2023/01/26 11:48:04;;;;;;;51.90;25.63;;;2.60;66.60;;;;;;4647185;30;114952;-80
2023/01/26 11:51:03;;;;;;;46.45;24.77;;;2.60;66.70;;;;;;4649270;30;115215;-78
2023/01/26 11:54:14;;;;;;;45.50;24.65;;;2.50;66.50;;;;;;4634158;30;115001;-79
2023/01/26 11:57:03;;;;;;;47.03;25.75;;;2.50;66.60;;;;;;4651445;30;114618;-79
2023/01/26 11:59:50;;;;;;;44.05;24.08;;;2.50;66.90;;;;;;4649524;30;115150;-79
2023/01/26 12:02:35;;;;;;;46.35;24.42;;;2.50;66.90;;;;;;4620051;30;115065;-79
2023/01/26 12:05:24;;;;;;;45.53;24.23;;;2.60;66.90;;;;;;4635644;30;114845;-79
2023/01/26 12:08:05;;;;;;;47.60;24.33;;;2.60;66.90;;;;;;4650702;30;114548;-80
2023/01/26 12:10:49;;;;;;;42.13;23.40;;;2.60;66.70;;;;;;4649765;30;115330;-78
2023/01/26 12:13:39;;;;;;;37.97;21.40;;;2.60;66.60;;;;;;4620752;30;115322;-79
2023/01/26 12:16:17;;;;;;;41.53;22.02;;;2.50;66.80;;;;;;4648816;30;115068;-78
2023/01/26 12:18:52;;;;;;;39.92;23.13;;;2.50;66.70;;;;;;4641812;30;115079;-77
2023/01/26 12:21:37;;;;;;;40.80;21.95;;;2.50;66.60;;;;;;4649621;30;114962;-79
2023/01/26 12:24:05;;;;;;;39.35;20.73;;;2.40;66.50;;;;;;4636444;30;115658;-78
2023/01/26 12:26:43;;;;;;;42.97;21.27;;;2.40;66.70;;;;;;4634769;30;115497;-79
2023/01/26 12:29:20;;;;;;;39.45;21.70;;;2.40;66.90;;;;;;4645604;30;114824;-78
2023/01/26 12:32:11;;;;;;;43.22;22.95;;;2.30;66.70;;;;;;4649463;30;114902;-78
2023/01/26 12:34:38;;;;;;;41.15;21.52;;;2.20;66.80;;;;;;4643198;30;115479;-78
2023/01/26 12:37:24;;;;;;;39.42;21.65;;;2.20;67.10;;;;;;4601975;30;117630;-79
2023/01/26 12:40:23;;;;;;;38.40;21.95;;;2.20;67.10;;;;;;4613542;30;114498;-78
2023/01/26 12:43:25;;;;;;;43.05;23.70;;;2.30;67.20;;;;;;4625978;30;114625;-80
2023/01/26 12:45:53;;;;;;;44.33;23.30;;;2.20;67.20;;;;;;4615106;30;115442;-80
2023/01/26 12:48:35;;;;;;;44.75;22.60;;;2.20;67.20;;;;;;4643827;30;114776;-79
2023/01/26 12:51:15;;;;;;;41.58;21.65;;;2.30;67.00;;;;;;4616016;30;114717;-78
2023/01/26 12:54:14;;;;;;;38.85;20.77;;;2.30;67.10;;;;;;4615074;30;118446;-78
2023/01/26 12:56:53;;;;;;;41.55;21.48;;;2.40;67.00;;;;;;4613757;30;116643;-78
2023/01/26 12:59:29;;;;;;;41.63;20.85;;;2.40;67.00;;;;;;4603356;30;114885;-78
2023/01/26 13:02:14;;;;;;;38.75;21.42;;;2.50;66.90;;;;;;4631624;30;114586;-79
2023/01/26 13:04:43;;;;;;;39.95;22.08;;;2.40;66.90;;;;;;4616000;30;114526;-79
2023/01/26 13:07:27;;;;;;;40.83;21.75;;;2.40;66.90;;;;;;4614224;30;116007;-78
2023/01/26 13:10:17;;;;;;;40.13;20.58;;;2.50;66.70;;;;;;4628770;30;115664;-77
2023/01/26 13:12:58;;;;;;;40.78;21.85;;;2.50;66.70;;;;;;4617045;30;114899;-78
2023/01/26 13:15:30;;;;;;;44.13;23.95;;;2.50;66.80;;;;;;4616409;30;115324;-79
2023/01/26 13:17:59;;;;;;;44.28;24.00;;;2.50;66.80;;;;;;4628543;30;115283;-79
2023/01/26 13:20:46;;;;;;;41.53;21.77;;;2.50;66.70;;;;;;4642441;30;114907;-79
2023/01/26 13:23:45;;;;;;;43.05;22.08;;;2.50;66.70;;;;;;4614405;30;114634;-80
2023/01/26 13:26:18;;;;;;;41.92;22.08;;;2.50;66.80;;;;;;4615572;30;114606;-78
2023/01/26 13:28:46;;;;;;;40.88;21.33;;;2.40;66.80;;;;;;4619097;30;115158;-79
2023/01/26 13:31:30;;;;;;;43.88;23.63;;;2.30;66.90;;;;;;4616102;30;115182;-79
2023/01/26 13:34:00;;;;;;;39.17;21.77;;;2.30;66.90;;;;;;4637581;30;114998;-79
2023/01/26 13:36:33;;;;;;;41.85;22.50;;;2.20;67.00;;;;;;4631740;30;114618;-78
2023/01/26 13:39:27;;;;;;;43.27;22.53;;;2.20;67.00;;;;;;4645422;30;115187;-79
2023/01/26 13:41:55;;;;;;;43.30;23.10;;;2.10;67.30;;;;;;4635763;30;115995;-79
2023/01/26 13:44:40;;;;;;;42.88;23.52;;;2.10;67.30;;;;;;4635421;30;114760;-79
2023/01/26 13:47:14;;;;;;;42.25;22.25;;;2.20;67.20;;;;;;4641491;30;114573;-79